sensor_id;sensor_type;location;lat;lon;timestamp;P1;durP1;ratioP1;P2;durP2;ratioP2
17424;SDS011;8830;50.978;5.058;2022-11-06T00:00:22;6.23;;;3.10;;
17424;SDS011;8830;50.978;5.058;2022-11-06T00:02:51;7.00;;;2.60;;
17424;SDS011;8830;50.978;5.058;2022-11-06T00:05:18;6.57;;;3.03;;
17424;SDS011;8830;50.978;5.058;2022-11-06T00:08:03;10.30;;;3.00;;
17424;SDS011;8830;50.978;5.058;2022-11-06T00:10:32;6.40;;;3.10;;
17424;SDS011;8830;50.978;5.058;2022-11-06T00:12:59;5.43;;;2.63;;
17424;SDS011;8830;50.978;5.058;2022-11-06T00:15:26;9.10;;;2.80;;
17424;SDS011;8830;50.978;5.058;2022-11-06T00:17:55;5.67;;;2.20;;
17424;SDS011;8830;50.978;5.058;2022-11-06T00:20:25;6.07;;;2.70;;
17424;SDS011;8830;50.978;5.058;2022-11-06T00:22:52;8.30;;;2.40;;
17424;SDS011;8830;50.978;5.058;2022-11-06T00:25:19;6.97;;;3.00;;
17424;SDS011;8830;50.978;5.058;2022-11-06T00:27:47;10.67;;;3.10;;
17424;SDS011;8830;50.978;5.058;2022-11-06T00:30:14;6.33;;;2.43;;
17424;SDS011;8830;50.978;5.058;2022-11-06T00:32:44;5.33;;;2.50;;
17424;SDS011;8830;50.978;5.058;2022-11-06T00:35:12;8.00;;;3.17;;
17424;SDS011;8830;50.978;5.058;2022-11-06T00:37:39;3.67;;;2.30;;
17424;SDS011;8830;50.978;5.058;2022-11-06T00:40:06;6.40;;;2.90;;
17424;SDS011;8830;50.978;5.058;2022-11-06T00:42:34;4.60;;;2.80;;
17424;SDS011;8830;50.978;5.058;2022-11-06T00:45:01;7.93;;;2.47;;
17424;SDS011;8830;50.978;5.058;2022-11-06T00:47:28;7.93;;;2.33;;
17424;SDS011;8830;50.978;5.058;2022-11-06T00:49:56;4.93;;;2.23;;
17424;SDS011;8830;50.978;5.058;2022-11-06T00:52:24;5.90;;;2.60;;
17424;SDS011;8830;50.978;5.058;2022-11-06T00:54:52;12.23;;;2.40;;
17424;SDS011;8830;50.978;5.058;2022-11-06T00:57:18;6.33;;;2.40;;
17424;SDS011;8830;50.978;5.058;2022-11-06T00:59:45;5.60;;;2.13;;
17424;SDS011;8830;50.978;5.058;2022-11-06T01:02:12;4.17;;;2.27;;
17424;SDS011;8830;50.978;5.058;2022-11-06T01:04:41;7.83;;;2.37;;
17424;SDS011;8830;50.978;5.058;2022-11-06T01:07:08;7.03;;;2.30;;
17424;SDS011;8830;50.978;5.058;2022-11-06T01:09:37;6.27;;;2.40;;
17424;SDS011;8830;50.978;5.058;2022-11-06T01:12:04;7.20;;;3.20;;
17424;SDS011;8830;50.978;5.058;2022-11-06T01:14:32;7.60;;;2.63;;
17424;SDS011;8830;50.978;5.058;2022-11-06T01:16:59;4.97;;;2.43;;
17424;SDS011;8830;50.978;5.058;2022-11-06T01:19:26;6.83;;;2.33;;
17424;SDS011;8830;50.978;5.058;2022-11-06T01:21:53;5.60;;;2.17;;
17424;SDS011;8830;50.978;5.058;2022-11-06T01:24:21;7.57;;;2.47;;
17424;SDS011;8830;50.978;5.058;2022-11-06T01:26:50;5.00;;;2.47;;
17424;SDS011;8830;50.978;5.058;2022-11-06T01:29:18;5.40;;;1.90;;
17424;SDS011;8830;50.978;5.058;2022-11-06T01:31:46;8.87;;;2.00;;
17424;SDS011;8830;50.978;5.058;2022-11-06T01:34:16;5.93;;;1.90;;
17424;SDS011;8830;50.978;5.058;2022-11-06T01:36:44;7.17;;;2.07;;
17424;SDS011;8830;50.978;5.058;2022-11-06T01:39:12;5.23;;;1.90;;
17424;SDS011;8830;50.978;5.058;2022-11-06T01:41:42;6.47;;;2.00;;
17424;SDS011;8830;50.978;5.058;2022-11-06T01:47:18;6.40;;;2.43;;
17424;SDS011;8830;50.978;5.058;2022-11-06T01:49:48;5.73;;;2.03;;
17424;SDS011;8830;50.978;5.058;2022-11-06T01:52:18;10.30;;;2.27;;
17424;SDS011;8830;50.978;5.058;2022-11-06T01:54:47;7.97;;;1.90;;
17424;SDS011;8830;50.978;5.058;2022-11-06T01:57:19;5.67;;;2.23;;
17424;SDS011;8830;50.978;5.058;2022-11-06T01:59:47;3.23;;;2.10;;
17424;SDS011;8830;50.978;5.058;2022-11-06T02:02:17;9.53;;;2.43;;
17424;SDS011;8830;50.978;5.058;2022-11-06T02:04:48;2.53;;;1.67;;
17424;SDS011;8830;50.978;5.058;2022-11-06T02:07:15;4.73;;;1.97;;
17424;SDS011;8830;50.978;5.058;2022-11-06T02:09:44;5.47;;;2.10;;
17424;SDS011;8830;50.978;5.058;2022-11-06T02:12:13;7.03;;;2.33;;
17424;SDS011;8830;50.978;5.058;2022-11-06T02:14:51;4.90;;;2.30;;
17424;SDS011;8830;50.978;5.058;2022-11-06T02:17:31;5.83;;;3.20;;
17424;SDS011;8830;50.978;5.058;2022-11-06T02:20:09;3.13;;;1.93;;
17424;SDS011;8830;50.978;5.058;2022-11-06T02:22:49;5.37;;;1.70;;
17424;SDS011;8830;50.978;5.058;2022-11-06T02:25:31;4.97;;;2.27;;
17424;SDS011;8830;50.978;5.058;2022-11-06T02:28:10;7.17;;;2.23;;
17424;SDS011;8830;50.978;5.058;2022-11-06T02:30:43;5.83;;;2.30;;
17424;SDS011;8830;50.978;5.058;2022-11-06T02:33:13;7.10;;;2.20;;
17424;SDS011;8830;50.978;5.058;2022-11-06T02:35:45;9.10;;;3.47;;
17424;SDS011;8830;50.978;5.058;2022-11-06T02:38:19;12.57;;;2.30;;
17424;SDS011;8830;50.978;5.058;2022-11-06T02:40:50;7.73;;;2.17;;
17424;SDS011;8830;50.978;5.058;2022-11-06T02:43:21;4.70;;;2.00;;
17424;SDS011;8830;50.978;5.058;2022-11-06T02:45:54;2.83;;;1.97;;
17424;SDS011;8830;50.978;5.058;2022-11-06T02:48:25;6.23;;;2.17;;
17424;SDS011;8830;50.978;5.058;2022-11-06T02:50:57;7.27;;;2.37;;
17424;SDS011;8830;50.978;5.058;2022-11-06T02:53:27;4.13;;;2.10;;
17424;SDS011;8830;50.978;5.058;2022-11-06T02:55:58;5.07;;;2.47;;
17424;SDS011;8830;50.978;5.058;2022-11-06T02:58:33;4.63;;;2.23;;
17424;SDS011;8830;50.978;5.058;2022-11-06T03:01:06;5.87;;;1.90;;
17424;SDS011;8830;50.978;5.058;2022-11-06T03:03:42;5.17;;;2.40;;
17424;SDS011;8830;50.978;5.058;2022-11-06T03:06:17;5.37;;;2.37;;
17424;SDS011;8830;50.978;5.058;2022-11-06T03:08:50;6.03;;;2.00;;
17424;SDS011;8830;50.978;5.058;2022-11-06T03:11:19;3.80;;;2.37;;
17424;SDS011;8830;50.978;5.058;2022-11-06T03:13:51;5.93;;;2.57;;
17424;SDS011;8830;50.978;5.058;2022-11-06T03:16:28;3.83;;;2.57;;
17424;SDS011;8830;50.978;5.058;2022-11-06T03:19:03;4.57;;;2.30;;
17424;SDS011;8830;50.978;5.058;2022-11-06T03:21:37;7.73;;;2.30;;
17424;SDS011;8830;50.978;5.058;2022-11-06T03:24:26;4.83;;;2.13;;
17424;SDS011;8830;50.978;5.058;2022-11-06T03:26:56;6.63;;;2.30;;
17424;SDS011;8830;50.978;5.058;2022-11-06T03:29:31;7.17;;;2.77;;
17424;SDS011;8830;50.978;5.058;2022-11-06T03:32:04;5.37;;;2.10;;
17424;SDS011;8830;50.978;5.058;2022-11-06T03:34:36;6.87;;;2.37;;
17424;SDS011;8830;50.978;5.058;2022-11-06T03:37:08;3.50;;;1.93;;
17424;SDS011;8830;50.978;5.058;2022-11-06T03:39:40;4.17;;;2.67;;
17424;SDS011;8830;50.978;5.058;2022-11-06T03:42:14;8.97;;;2.47;;
17424;SDS011;8830;50.978;5.058;2022-11-06T03:44:48;4.87;;;2.10;;
17424;SDS011;8830;50.978;5.058;2022-11-06T03:47:20;6.20;;;2.10;;
17424;SDS011;8830;50.978;5.058;2022-11-06T03:49:53;5.47;;;2.50;;
17424;SDS011;8830;50.978;5.058;2022-11-06T03:52:26;3.93;;;1.87;;
17424;SDS011;8830;50.978;5.058;2022-11-06T03:54:59;4.10;;;2.27;;
17424;SDS011;8830;50.978;5.058;2022-11-06T03:57:32;4.23;;;1.77;;
17424;SDS011;8830;50.978;5.058;2022-11-06T04:00:06;6.77;;;2.10;;
17424;SDS011;8830;50.978;5.058;2022-11-06T04:02:35;5.93;;;2.30;;
17424;SDS011;8830;50.978;5.058;2022-11-06T04:05:07;7.27;;;2.33;;
17424;SDS011;8830;50.978;5.058;2022-11-06T04:07:40;3.63;;;1.90;;
17424;SDS011;8830;50.978;5.058;2022-11-06T04:10:32;8.00;;;2.27;;
17424;SDS011;8830;50.978;5.058;2022-11-06T04:13:19;3.90;;;2.30;;
17424;SDS011;8830;50.978;5.058;2022-11-06T04:16:08;4.70;;;2.07;;
17424;SDS011;8830;50.978;5.058;2022-11-06T04:18:36;6.83;;;2.03;;
17424;SDS011;8830;50.978;5.058;2022-11-06T04:21:08;6.40;;;2.07;;
17424;SDS011;8830;50.978;5.058;2022-11-06T04:23:52;7.10;;;2.67;;
17424;SDS011;8830;50.978;5.058;2022-11-06T04:26:46;4.60;;;2.20;;
17424;SDS011;8830;50.978;5.058;2022-11-06T04:29:32;2.37;;;1.70;;
17424;SDS011;8830;50.978;5.058;2022-11-06T04:32:11;7.70;;;2.10;;
17424;SDS011;8830;50.978;5.058;2022-11-06T04:34:45;5.20;;;2.07;;
17424;SDS011;8830;50.978;5.058;2022-11-06T04:37:20;7.00;;;2.23;;
17424;SDS011;8830;50.978;5.058;2022-11-06T04:39:52;4.43;;;1.90;;
17424;SDS011;8830;50.978;5.058;2022-11-06T04:42:27;3.43;;;1.93;;
17424;SDS011;8830;50.978;5.058;2022-11-06T04:45:02;6.90;;;2.30;;
17424;SDS011;8830;50.978;5.058;2022-11-06T04:47:35;4.37;;;2.00;;
17424;SDS011;8830;50.978;5.058;2022-11-06T04:50:05;3.80;;;1.90;;
17424;SDS011;8830;50.978;5.058;2022-11-06T04:52:34;5.23;;;2.17;;
17424;SDS011;8830;50.978;5.058;2022-11-06T04:55:04;4.17;;;2.00;;
17424;SDS011;8830;50.978;5.058;2022-11-06T04:57:32;6.23;;;1.90;;
17424;SDS011;8830;50.978;5.058;2022-11-06T04:59:58;4.40;;;2.00;;
17424;SDS011;8830;50.978;5.058;2022-11-06T05:02:26;4.93;;;1.93;;
17424;SDS011;8830;50.978;5.058;2022-11-06T05:04:54;5.43;;;1.70;;
17424;SDS011;8830;50.978;5.058;2022-11-06T05:07:21;4.07;;;1.90;;
17424;SDS011;8830;50.978;5.058;2022-11-06T05:09:48;5.27;;;1.80;;
17424;SDS011;8830;50.978;5.058;2022-11-06T05:12:15;4.40;;;2.07;;
17424;SDS011;8830;50.978;5.058;2022-11-06T05:14:42;6.13;;;2.00;;
17424;SDS011;8830;50.978;5.058;2022-11-06T05:17:09;6.73;;;2.60;;
17424;SDS011;8830;50.978;5.058;2022-11-06T05:19:37;5.27;;;2.47;;
17424;SDS011;8830;50.978;5.058;2022-11-06T05:22:05;4.57;;;1.77;;
17424;SDS011;8830;50.978;5.058;2022-11-06T05:24:49;4.93;;;2.07;;
17424;SDS011;8830;50.978;5.058;2022-11-06T05:27:16;5.67;;;1.70;;
17424;SDS011;8830;50.978;5.058;2022-11-06T05:29:43;6.23;;;1.93;;
17424;SDS011;8830;50.978;5.058;2022-11-06T05:32:10;3.73;;;1.90;;
17424;SDS011;8830;50.978;5.058;2022-11-06T05:34:37;4.23;;;2.40;;
17424;SDS011;8830;50.978;5.058;2022-11-06T05:37:07;7.23;;;2.50;;
17424;SDS011;8830;50.978;5.058;2022-11-06T05:39:34;8.03;;;1.93;;
17424;SDS011;8830;50.978;5.058;2022-11-06T05:42:02;7.50;;;2.10;;
17424;SDS011;8830;50.978;5.058;2022-11-06T05:44:30;7.80;;;2.73;;
17424;SDS011;8830;50.978;5.058;2022-11-06T05:47:01;2.87;;;1.60;;
17424;SDS011;8830;50.978;5.058;2022-11-06T05:49:31;4.33;;;1.83;;
17424;SDS011;8830;50.978;5.058;2022-11-06T05:51:58;3.90;;;2.23;;
17424;SDS011;8830;50.978;5.058;2022-11-06T05:54:27;3.70;;;2.30;;
17424;SDS011;8830;50.978;5.058;2022-11-06T05:56:54;4.80;;;2.03;;
17424;SDS011;8830;50.978;5.058;2022-11-06T05:59:22;3.20;;;1.93;;
17424;SDS011;8830;50.978;5.058;2022-11-06T06:01:53;9.47;;;3.73;;
17424;SDS011;8830;50.978;5.058;2022-11-06T06:04:21;3.50;;;1.60;;
17424;SDS011;8830;50.978;5.058;2022-11-06T06:06:48;6.53;;;1.87;;
17424;SDS011;8830;50.978;5.058;2022-11-06T06:09:16;5.33;;;2.43;;
17424;SDS011;8830;50.978;5.058;2022-11-06T06:11:48;3.23;;;1.90;;
17424;SDS011;8830;50.978;5.058;2022-11-06T06:14:16;5.33;;;2.10;;
17424;SDS011;8830;50.978;5.058;2022-11-06T06:16:43;11.17;;;6.43;;
17424;SDS011;8830;50.978;5.058;2022-11-06T06:19:10;15.67;;;8.17;;
17424;SDS011;8830;50.978;5.058;2022-11-06T06:21:40;13.10;;;9.43;;
17424;SDS011;8830;50.978;5.058;2022-11-06T06:24:07;8.27;;;6.10;;
17424;SDS011;8830;50.978;5.058;2022-11-06T06:26:35;16.23;;;8.93;;
17424;SDS011;8830;50.978;5.058;2022-11-06T06:29:04;7.63;;;4.53;;
17424;SDS011;8830;50.978;5.058;2022-11-06T06:31:32;8.87;;;4.47;;
17424;SDS011;8830;50.978;5.058;2022-11-06T06:34:01;5.73;;;3.17;;
17424;SDS011;8830;50.978;5.058;2022-11-06T06:36:28;3.87;;;2.23;;
17424;SDS011;8830;50.978;5.058;2022-11-06T06:38:55;3.77;;;1.93;;
17424;SDS011;8830;50.978;5.058;2022-11-06T06:41:22;6.00;;;1.97;;
17424;SDS011;8830;50.978;5.058;2022-11-06T06:43:49;5.57;;;2.10;;
17424;SDS011;8830;50.978;5.058;2022-11-06T06:46:19;6.67;;;2.00;;
17424;SDS011;8830;50.978;5.058;2022-11-06T06:48:47;3.83;;;2.30;;
17424;SDS011;8830;50.978;5.058;2022-11-06T06:51:15;4.10;;;1.90;;
17424;SDS011;8830;50.978;5.058;2022-11-06T06:53:42;5.43;;;2.00;;
17424;SDS011;8830;50.978;5.058;2022-11-06T06:56:13;4.80;;;2.33;;
17424;SDS011;8830;50.978;5.058;2022-11-06T06:58:41;5.10;;;2.03;;
17424;SDS011;8830;50.978;5.058;2022-11-06T07:01:09;7.67;;;2.10;;
17424;SDS011;8830;50.978;5.058;2022-11-06T07:03:39;3.33;;;1.77;;
17424;SDS011;8830;50.978;5.058;2022-11-06T07:06:06;4.80;;;2.07;;
17424;SDS011;8830;50.978;5.058;2022-11-06T07:08:33;4.23;;;1.93;;
17424;SDS011;8830;50.978;5.058;2022-11-06T07:11:02;3.70;;;1.77;;
17424;SDS011;8830;50.978;5.058;2022-11-06T07:13:31;7.67;;;2.43;;
17424;SDS011;8830;50.978;5.058;2022-11-06T07:15:58;5.30;;;1.90;;
17424;SDS011;8830;50.978;5.058;2022-11-06T07:18:28;3.57;;;1.67;;
17424;SDS011;8830;50.978;5.058;2022-11-06T07:21:02;6.80;;;2.20;;
17424;SDS011;8830;50.978;5.058;2022-11-06T07:23:31;4.73;;;2.17;;
17424;SDS011;8830;50.978;5.058;2022-11-06T07:26:02;3.97;;;1.87;;
17424;SDS011;8830;50.978;5.058;2022-11-06T07:28:30;3.97;;;1.80;;
17424;SDS011;8830;50.978;5.058;2022-11-06T07:30:57;3.10;;;1.57;;
17424;SDS011;8830;50.978;5.058;2022-11-06T07:33:26;4.83;;;1.70;;
17424;SDS011;8830;50.978;5.058;2022-11-06T07:35:53;4.10;;;1.67;;
17424;SDS011;8830;50.978;5.058;2022-11-06T07:38:22;3.97;;;1.63;;
17424;SDS011;8830;50.978;5.058;2022-11-06T07:40:49;3.10;;;1.70;;
17424;SDS011;8830;50.978;5.058;2022-11-06T07:43:16;5.30;;;1.80;;
17424;SDS011;8830;50.978;5.058;2022-11-06T07:45:43;6.03;;;1.67;;
17424;SDS011;8830;50.978;5.058;2022-11-06T07:48:11;3.43;;;1.70;;
17424;SDS011;8830;50.978;5.058;2022-11-06T07:50:38;6.13;;;2.03;;
17424;SDS011;8830;50.978;5.058;2022-11-06T07:53:07;3.80;;;1.40;;
17424;SDS011;8830;50.978;5.058;2022-11-06T07:55:37;4.53;;;1.53;;
17424;SDS011;8830;50.978;5.058;2022-11-06T07:58:05;7.07;;;1.80;;
17424;SDS011;8830;50.978;5.058;2022-11-06T08:00:32;6.87;;;1.60;;
17424;SDS011;8830;50.978;5.058;2022-11-06T08:03:00;4.70;;;1.60;;
17424;SDS011;8830;50.978;5.058;2022-11-06T08:05:28;3.90;;;1.40;;
17424;SDS011;8830;50.978;5.058;2022-11-06T08:07:59;5.80;;;1.80;;
17424;SDS011;8830;50.978;5.058;2022-11-06T08:10:38;6.20;;;1.97;;
17424;SDS011;8830;50.978;5.058;2022-11-06T08:13:09;4.37;;;1.47;;
17424;SDS011;8830;50.978;5.058;2022-11-06T08:15:37;3.30;;;1.47;;
17424;SDS011;8830;50.978;5.058;2022-11-06T08:18:06;6.93;;;1.40;;
17424;SDS011;8830;50.978;5.058;2022-11-06T08:20:34;3.17;;;1.47;;
17424;SDS011;8830;50.978;5.058;2022-11-06T08:23:03;3.20;;;1.70;;
17424;SDS011;8830;50.978;5.058;2022-11-06T08:25:42;6.50;;;2.83;;
17424;SDS011;8830;50.978;5.058;2022-11-06T08:28:11;5.50;;;2.20;;
17424;SDS011;8830;50.978;5.058;2022-11-06T08:30:41;3.77;;;1.60;;
17424;SDS011;8830;50.978;5.058;2022-11-06T08:33:09;3.57;;;1.70;;
17424;SDS011;8830;50.978;5.058;2022-11-06T08:35:37;6.17;;;1.83;;
17424;SDS011;8830;50.978;5.058;2022-11-06T08:38:04;2.83;;;1.40;;
17424;SDS011;8830;50.978;5.058;2022-11-06T08:40:37;3.23;;;1.63;;
17424;SDS011;8830;50.978;5.058;2022-11-06T08:43:09;3.77;;;1.60;;
17424;SDS011;8830;50.978;5.058;2022-11-06T08:45:38;4.13;;;1.70;;
17424;SDS011;8830;50.978;5.058;2022-11-06T08:48:07;4.27;;;1.40;;
17424;SDS011;8830;50.978;5.058;2022-11-06T08:50:36;5.67;;;1.43;;
17424;SDS011;8830;50.978;5.058;2022-11-06T08:53:04;4.73;;;1.80;;
17424;SDS011;8830;50.978;5.058;2022-11-06T08:55:35;2.10;;;1.40;;
17424;SDS011;8830;50.978;5.058;2022-11-06T08:58:05;3.50;;;1.50;;
17424;SDS011;8830;50.978;5.058;2022-11-06T09:00:35;4.67;;;1.60;;
17424;SDS011;8830;50.978;5.058;2022-11-06T09:03:04;3.07;;;1.87;;
17424;SDS011;8830;50.978;5.058;2022-11-06T09:05:32;4.70;;;1.53;;
17424;SDS011;8830;50.978;5.058;2022-11-06T09:07:59;8.90;;;1.77;;
17424;SDS011;8830;50.978;5.058;2022-11-06T09:10:27;4.27;;;1.90;;
17424;SDS011;8830;50.978;5.058;2022-11-06T09:12:56;5.07;;;1.37;;
17424;SDS011;8830;50.978;5.058;2022-11-06T09:15:26;2.80;;;1.57;;
17424;SDS011;8830;50.978;5.058;2022-11-06T09:17:54;6.53;;;1.50;;
17424;SDS011;8830;50.978;5.058;2022-11-06T09:20:22;4.67;;;1.97;;
17424;SDS011;8830;50.978;5.058;2022-11-06T09:22:50;2.80;;;1.10;;
17424;SDS011;8830;50.978;5.058;2022-11-06T09:25:18;3.60;;;1.47;;
17424;SDS011;8830;50.978;5.058;2022-11-06T09:27:47;4.73;;;1.37;;
17424;SDS011;8830;50.978;5.058;2022-11-06T09:30:16;6.10;;;1.57;;
17424;SDS011;8830;50.978;5.058;2022-11-06T09:32:45;5.67;;;1.77;;
17424;SDS011;8830;50.978;5.058;2022-11-06T09:35:15;4.50;;;1.97;;
17424;SDS011;8830;50.978;5.058;2022-11-06T09:37:43;3.97;;;1.30;;
17424;SDS011;8830;50.978;5.058;2022-11-06T09:40:14;2.40;;;1.10;;
17424;SDS011;8830;50.978;5.058;2022-11-06T09:42:48;7.30;;;1.63;;
17424;SDS011;8830;50.978;5.058;2022-11-06T09:45:24;5.47;;;1.60;;
17424;SDS011;8830;50.978;5.058;2022-11-06T09:47:56;3.47;;;1.90;;
17424;SDS011;8830;50.978;5.058;2022-11-06T09:50:32;4.07;;;1.43;;
17424;SDS011;8830;50.978;5.058;2022-11-06T09:53:04;5.47;;;1.10;;
17424;SDS011;8830;50.978;5.058;2022-11-06T09:55:37;3.70;;;1.17;;
17424;SDS011;8830;50.978;5.058;2022-11-06T09:58:10;3.00;;;1.17;;
17424;SDS011;8830;50.978;5.058;2022-11-06T10:00:41;1.67;;;1.10;;
17424;SDS011;8830;50.978;5.058;2022-11-06T10:03:11;5.97;;;1.20;;
17424;SDS011;8830;50.978;5.058;2022-11-06T10:05:45;3.83;;;1.57;;
17424;SDS011;8830;50.978;5.058;2022-11-06T10:08:14;4.70;;;1.30;;
17424;SDS011;8830;50.978;5.058;2022-11-06T10:10:49;8.83;;;1.50;;
17424;SDS011;8830;50.978;5.058;2022-11-06T10:13:29;3.63;;;1.47;;
17424;SDS011;8830;50.978;5.058;2022-11-06T10:16:10;6.30;;;2.13;;
17424;SDS011;8830;50.978;5.058;2022-11-06T10:18:45;4.10;;;1.90;;
17424;SDS011;8830;50.978;5.058;2022-11-06T10:21:22;4.20;;;1.30;;
17424;SDS011;8830;50.978;5.058;2022-11-06T10:23:52;5.90;;;1.63;;
17424;SDS011;8830;50.978;5.058;2022-11-06T10:26:26;6.63;;;1.70;;
17424;SDS011;8830;50.978;5.058;2022-11-06T10:29:14;2.53;;;1.40;;
17424;SDS011;8830;50.978;5.058;2022-11-06T10:32:03;4.23;;;1.50;;
17424;SDS011;8830;50.978;5.058;2022-11-06T10:34:45;3.80;;;1.30;;
17424;SDS011;8830;50.978;5.058;2022-11-06T10:37:16;6.27;;;1.50;;
17424;SDS011;8830;50.978;5.058;2022-11-06T10:39:48;6.93;;;1.80;;
17424;SDS011;8830;50.978;5.058;2022-11-06T10:42:18;2.50;;;1.20;;
17424;SDS011;8830;50.978;5.058;2022-11-06T10:44:48;3.33;;;1.20;;
17424;SDS011;8830;50.978;5.058;2022-11-06T10:47:21;5.67;;;1.33;;
17424;SDS011;8830;50.978;5.058;2022-11-06T10:49:50;4.23;;;1.77;;
17424;SDS011;8830;50.978;5.058;2022-11-06T10:52:25;3.23;;;1.30;;
17424;SDS011;8830;50.978;5.058;2022-11-06T10:55:08;4.83;;;1.37;;
17424;SDS011;8830;50.978;5.058;2022-11-06T10:58:00;5.90;;;1.60;;
17424;SDS011;8830;50.978;5.058;2022-11-06T11:00:30;3.93;;;1.50;;
17424;SDS011;8830;50.978;5.058;2022-11-06T11:02:59;5.63;;;1.23;;
17424;SDS011;8830;50.978;5.058;2022-11-06T11:05:31;1.83;;;1.13;;
17424;SDS011;8830;50.978;5.058;2022-11-06T11:08:04;6.87;;;1.60;;
17424;SDS011;8830;50.978;5.058;2022-11-06T11:10:59;3.97;;;1.37;;
17424;SDS011;8830;50.978;5.058;2022-11-06T11:13:29;6.77;;;1.47;;
17424;SDS011;8830;50.978;5.058;2022-11-06T11:15:56;1.43;;;1.20;;
17424;SDS011;8830;50.978;5.058;2022-11-06T11:18:24;4.07;;;1.30;;
17424;SDS011;8830;50.978;5.058;2022-11-06T11:21:05;6.50;;;2.10;;
17424;SDS011;8830;50.978;5.058;2022-11-06T11:23:40;4.90;;;1.10;;
17424;SDS011;8830;50.978;5.058;2022-11-06T11:26:16;6.83;;;1.23;;
17424;SDS011;8830;50.978;5.058;2022-11-06T11:28:48;3.80;;;1.13;;
17424;SDS011;8830;50.978;5.058;2022-11-06T11:31:26;4.93;;;1.33;;
17424;SDS011;8830;50.978;5.058;2022-11-06T11:33:55;5.23;;;1.03;;
17424;SDS011;8830;50.978;5.058;2022-11-06T11:36:25;5.10;;;0.97;;
17424;SDS011;8830;50.978;5.058;2022-11-06T11:38:53;6.77;;;1.10;;
17424;SDS011;8830;50.978;5.058;2022-11-06T11:41:21;2.03;;;1.07;;
17424;SDS011;8830;50.978;5.058;2022-11-06T11:43:56;3.80;;;1.07;;
17424;SDS011;8830;50.978;5.058;2022-11-06T11:46:30;3.27;;;1.27;;
17424;SDS011;8830;50.978;5.058;2022-11-06T11:48:57;6.33;;;1.53;;
17424;SDS011;8830;50.978;5.058;2022-11-06T11:51:28;4.83;;;1.37;;
17424;SDS011;8830;50.978;5.058;2022-11-06T11:54:02;6.57;;;1.20;;
17424;SDS011;8830;50.978;5.058;2022-11-06T11:56:31;6.07;;;1.43;;
17424;SDS011;8830;50.978;5.058;2022-11-06T11:58:59;7.00;;;1.30;;
17424;SDS011;8830;50.978;5.058;2022-11-06T12:01:32;4.13;;;1.27;;
17424;SDS011;8830;50.978;5.058;2022-11-06T12:04:14;4.37;;;1.60;;
17424;SDS011;8830;50.978;5.058;2022-11-06T12:06:52;2.67;;;1.10;;
17424;SDS011;8830;50.978;5.058;2022-11-06T12:09:25;4.23;;;1.30;;
17424;SDS011;8830;50.978;5.058;2022-11-06T12:11:53;3.03;;;1.00;;
17424;SDS011;8830;50.978;5.058;2022-11-06T12:14:29;5.20;;;1.20;;
17424;SDS011;8830;50.978;5.058;2022-11-06T12:17:01;2.23;;;1.07;;
17424;SDS011;8830;50.978;5.058;2022-11-06T12:19:40;4.77;;;1.50;;
17424;SDS011;8830;50.978;5.058;2022-11-06T12:22:13;3.30;;;1.50;;
17424;SDS011;8830;50.978;5.058;2022-11-06T12:24:47;4.17;;;1.93;;
17424;SDS011;8830;50.978;5.058;2022-11-06T12:27:19;4.53;;;2.53;;
17424;SDS011;8830;50.978;5.058;2022-11-06T12:29:51;3.83;;;1.50;;
17424;SDS011;8830;50.978;5.058;2022-11-06T12:32:30;7.60;;;1.80;;
17424;SDS011;8830;50.978;5.058;2022-11-06T12:35:12;2.93;;;1.60;;
17424;SDS011;8830;50.978;5.058;2022-11-06T12:37:48;3.80;;;1.37;;
17424;SDS011;8830;50.978;5.058;2022-11-06T12:40:23;2.83;;;0.93;;
17424;SDS011;8830;50.978;5.058;2022-11-06T12:43:02;3.83;;;1.23;;
17424;SDS011;8830;50.978;5.058;2022-11-06T12:45:47;3.20;;;1.17;;
17424;SDS011;8830;50.978;5.058;2022-11-06T12:48:24;3.67;;;1.50;;
17424;SDS011;8830;50.978;5.058;2022-11-06T12:51:05;2.47;;;1.00;;
17424;SDS011;8830;50.978;5.058;2022-11-06T12:53:40;4.00;;;1.40;;
17424;SDS011;8830;50.978;5.058;2022-11-06T12:56:21;5.37;;;1.60;;
17424;SDS011;8830;50.978;5.058;2022-11-06T12:58:57;3.57;;;1.10;;
17424;SDS011;8830;50.978;5.058;2022-11-06T13:01:37;5.17;;;1.40;;
17424;SDS011;8830;50.978;5.058;2022-11-06T13:04:26;3.60;;;1.50;;
17424;SDS011;8830;50.978;5.058;2022-11-06T13:10:06;4.33;;;1.20;;
17424;SDS011;8830;50.978;5.058;2022-11-06T13:12:56;2.23;;;1.10;;
17424;SDS011;8830;50.978;5.058;2022-11-06T13:15:33;2.43;;;1.20;;
17424;SDS011;8830;50.978;5.058;2022-11-06T13:18:07;3.73;;;1.67;;
17424;SDS011;8830;50.978;5.058;2022-11-06T13:20:42;2.70;;;1.30;;
17424;SDS011;8830;50.978;5.058;2022-11-06T13:23:18;2.93;;;1.30;;
17424;SDS011;8830;50.978;5.058;2022-11-06T13:25:54;1.63;;;1.20;;
17424;SDS011;8830;50.978;5.058;2022-11-06T13:28:33;5.40;;;1.97;;
17424;SDS011;8830;50.978;5.058;2022-11-06T13:31:04;3.33;;;1.47;;
17424;SDS011;8830;50.978;5.058;2022-11-06T13:33:35;6.23;;;1.77;;
17424;SDS011;8830;50.978;5.058;2022-11-06T13:36:07;4.80;;;2.13;;
17424;SDS011;8830;50.978;5.058;2022-11-06T13:38:36;5.73;;;2.27;;
17424;SDS011;8830;50.978;5.058;2022-11-06T13:41:06;5.73;;;1.47;;
17424;SDS011;8830;50.978;5.058;2022-11-06T13:43:40;4.70;;;1.80;;
17424;SDS011;8830;50.978;5.058;2022-11-06T13:46:13;5.23;;;1.90;;
17424;SDS011;8830;50.978;5.058;2022-11-06T13:48:49;4.77;;;1.37;;
17424;SDS011;8830;50.978;5.058;2022-11-06T13:51:26;5.20;;;1.90;;
17424;SDS011;8830;50.978;5.058;2022-11-06T13:54:02;4.80;;;1.87;;
17424;SDS011;8830;50.978;5.058;2022-11-06T13:59:35;3.13;;;1.80;;
17424;SDS011;8830;50.978;5.058;2022-11-06T14:02:19;3.73;;;1.43;;
17424;SDS011;8830;50.978;5.058;2022-11-06T14:08:10;3.10;;;1.33;;
17424;SDS011;8830;50.978;5.058;2022-11-06T14:10:46;3.13;;;1.47;;
17424;SDS011;8830;50.978;5.058;2022-11-06T14:13:21;2.60;;;1.37;;
17424;SDS011;8830;50.978;5.058;2022-11-06T14:15:59;3.63;;;1.50;;
17424;SDS011;8830;50.978;5.058;2022-11-06T14:18:28;4.10;;;1.80;;
17424;SDS011;8830;50.978;5.058;2022-11-06T14:24:03;2.40;;;1.40;;
17424;SDS011;8830;50.978;5.058;2022-11-06T14:26:38;2.47;;;1.27;;
17424;SDS011;8830;50.978;5.058;2022-11-06T14:32:33;3.13;;;1.70;;
17424;SDS011;8830;50.978;5.058;2022-11-06T14:44:27;3.63;;;1.50;;
17424;SDS011;8830;50.978;5.058;2022-11-06T14:47:05;4.83;;;2.00;;
17424;SDS011;8830;50.978;5.058;2022-11-06T14:49:47;3.23;;;1.37;;
17424;SDS011;8830;50.978;5.058;2022-11-06T14:52:18;5.00;;;1.20;;
17424;SDS011;8830;50.978;5.058;2022-11-06T14:54:51;5.13;;;2.93;;
17424;SDS011;8830;50.978;5.058;2022-11-06T14:57:36;2.30;;;1.17;;
17424;SDS011;8830;50.978;5.058;2022-11-06T15:00:12;3.33;;;1.60;;
17424;SDS011;8830;50.978;5.058;2022-11-06T15:02:58;6.13;;;1.57;;
17424;SDS011;8830;50.978;5.058;2022-11-06T15:05:27;2.70;;;1.60;;
17424;SDS011;8830;50.978;5.058;2022-11-06T15:08:01;4.23;;;1.37;;
17424;SDS011;8830;50.978;5.058;2022-11-06T15:13:23;3.63;;;2.77;;
17424;SDS011;8830;50.978;5.058;2022-11-06T15:15:54;3.27;;;2.20;;
17424;SDS011;8830;50.978;5.058;2022-11-06T15:18:24;2.93;;;1.40;;
17424;SDS011;8830;50.978;5.058;2022-11-06T15:20:54;5.97;;;1.30;;
17424;SDS011;8830;50.978;5.058;2022-11-06T15:23:22;4.80;;;1.40;;
17424;SDS011;8830;50.978;5.058;2022-11-06T15:26:00;3.63;;;1.90;;
17424;SDS011;8830;50.978;5.058;2022-11-06T15:28:39;2.43;;;1.80;;
17424;SDS011;8830;50.978;5.058;2022-11-06T15:31:12;3.73;;;1.77;;
17424;SDS011;8830;50.978;5.058;2022-11-06T15:33:45;3.07;;;1.63;;
17424;SDS011;8830;50.978;5.058;2022-11-06T15:36:20;3.20;;;1.10;;
17424;SDS011;8830;50.978;5.058;2022-11-06T15:38:48;1.60;;;1.27;;
17424;SDS011;8830;50.978;5.058;2022-11-06T15:41:16;3.93;;;1.30;;
17424;SDS011;8830;50.978;5.058;2022-11-06T15:43:47;1.50;;;1.13;;
17424;SDS011;8830;50.978;5.058;2022-11-06T15:46:20;4.40;;;1.37;;
17424;SDS011;8830;50.978;5.058;2022-11-06T15:49:04;2.77;;;1.50;;
17424;SDS011;8830;50.978;5.058;2022-11-06T15:51:49;2.37;;;1.60;;
17424;SDS011;8830;50.978;5.058;2022-11-06T15:54:31;1.60;;;1.37;;
17424;SDS011;8830;50.978;5.058;2022-11-06T15:57:00;3.20;;;1.40;;
17424;SDS011;8830;50.978;5.058;2022-11-06T15:59:30;2.20;;;1.40;;